Terminal Aerodrome Forecast
Issued by NWS

Home | Current Version | Previous Version | Text Only | Print | Product List | Glossary On
Versions: 1 2 3 4 5 6 7 8 9 10 11 12 13 14 15 16 17 18 19 20 21 22 23 24 25 26 27 28 29 30
078
FTUS45 KGJT 282341
TAFVEL
TAF
KVEL 282341Z 2900/2924 08003KT P6SM VCSH FEW029 BKN040
     FM290300 03011KT P6SM VCSH BKN060
     FM290800 02014KT P6SM BKN080
     FM291400 03016G26KT P6SM SCT130=

USA.gov is the U.S. government's official web portal to all federal, state and local government web resources and services.